createdAt,value
2023-01-19T00:02:17.477Z,51.30
2023-01-19T00:04:44.101Z,50.90
2023-01-19T00:07:10.762Z,51.77
2023-01-19T00:09:37.355Z,51.11
2023-01-19T00:12:04.760Z,51.81
2023-01-19T00:14:31.361Z,51.29
2023-01-19T00:16:57.964Z,50.27
2023-01-19T00:19:24.597Z,50.72
2023-01-19T00:21:51.234Z,49.83
2023-01-19T00:24:17.871Z,51.10
2023-01-19T00:26:44.513Z,49.83
2023-01-19T00:29:11.604Z,49.76
2023-01-19T00:31:39.618Z,50.48
2023-01-19T00:34:06.381Z,50.47
2023-01-19T00:36:33.293Z,50.23
2023-01-19T00:38:59.986Z,50.40
2023-01-19T00:41:26.828Z,50.37
2023-01-19T00:43:53.465Z,50.25
2023-01-19T00:46:20.320Z,51.17
2023-01-19T00:48:47.056Z,50.67
2023-01-19T00:51:13.721Z,50.58
2023-01-19T00:53:40.331Z,49.80
2023-01-19T00:56:07.316Z,49.89
2023-01-19T00:58:33.950Z,49.33
2023-01-19T01:01:00.637Z,49.44
2023-01-19T01:03:27.329Z,49.50
2023-01-19T01:05:54.008Z,50.66
2023-01-19T01:08:20.634Z,50.09
2023-01-19T01:10:47.266Z,49.98
2023-01-19T01:13:20.967Z,50.49
2023-01-19T01:15:52.327Z,51.09
2023-01-19T01:18:18.931Z,50.68
2023-01-19T01:20:45.526Z,49.72
2023-01-19T01:23:12.414Z,50.30
2023-01-19T01:25:39.034Z,50.48
2023-01-19T01:28:06.100Z,50.77
2023-01-19T01:30:32.767Z,50.73
2023-01-19T01:32:59.751Z,51.51
2023-01-19T01:35:26.523Z,52.04
2023-01-19T01:37:53.148Z,50.95
2023-01-19T01:40:19.780Z,50.41
2023-01-19T01:42:46.383Z,50.92
2023-01-19T01:45:28.380Z,51.18
2023-01-19T01:47:55.719Z,50.01
2023-01-19T01:50:28.569Z,50.36
2023-01-19T01:53:15.371Z,49.89
2023-01-19T01:55:45.199Z,50.71
2023-01-19T01:58:11.839Z,50.57
2023-01-19T02:00:38.654Z,49.19
2023-01-19T02:03:05.264Z,49.16
2023-01-19T02:05:34.840Z,49.09
2023-01-19T02:08:20.557Z,50.26
2023-01-19T02:10:47.209Z,49.89
2023-01-19T02:13:13.813Z,50.49
2023-01-19T02:15:40.404Z,50.36
2023-01-19T02:18:07.012Z,50.42
2023-01-19T02:20:33.674Z,49.75
2023-01-19T02:23:01.953Z,49.19
2023-01-19T02:25:28.790Z,48.86
2023-01-19T02:27:55.405Z,49.74
2023-01-19T02:30:22.103Z,49.71
2023-01-19T02:32:49.039Z,49.24
2023-01-19T02:35:15.845Z,47.72
2023-01-19T02:37:42.432Z,48.97
2023-01-19T02:40:14.331Z,49.69
2023-01-19T02:42:50.973Z,48.94
2023-01-19T02:45:21.876Z,49.05
2023-01-19T02:47:52.086Z,49.43
2023-01-19T02:51:14.200Z,48.98
2023-01-19T02:53:49.831Z,49.28
2023-01-19T02:56:22.765Z,50.14
2023-01-19T02:59:04.724Z,50.26
2023-01-19T03:01:46.473Z,49.33
2023-01-19T03:04:37.446Z,49.37
2023-01-19T03:07:28.836Z,48.12
2023-01-19T03:10:36.799Z,48.94
2023-01-19T03:13:11.079Z,50.12
2023-01-19T03:15:46.672Z,50.54
2023-01-19T03:18:13.418Z,50.57
2023-01-19T03:20:40.061Z,48.58
2023-01-19T03:23:08.355Z,50.58
2023-01-19T03:25:35.735Z,50.43
2023-01-19T03:28:02.327Z,50.42
2023-01-19T03:30:42.145Z,50.88
2023-01-19T03:33:14.970Z,51.61
2023-01-19T03:35:46.849Z,51.81
2023-01-19T03:38:16.131Z,51.87
2023-01-19T03:40:42.739Z,52.81
2023-01-19T03:43:09.384Z,52.94
2023-01-19T03:45:37.415Z,53.36
2023-01-19T03:48:04.173Z,52.94
2023-01-19T03:50:30.891Z,52.78
2023-01-19T03:53:01.729Z,53.37
2023-01-19T03:55:28.702Z,53.52
2023-01-19T03:57:55.308Z,53.72
2023-01-19T04:00:21.981Z,53.85
2023-01-19T04:02:48.749Z,54.58
2023-01-19T04:05:15.462Z,54.72
2023-01-19T04:07:42.116Z,54.32
2023-01-19T04:10:09.442Z,54.71
2023-01-19T04:12:36.090Z,53.11
2023-01-19T04:15:02.734Z,52.69
2023-01-19T04:17:29.332Z,53.81
2023-01-19T04:19:56.053Z,55.25
2023-01-19T04:22:22.701Z,53.73
2023-01-19T04:24:49.314Z,53.60
2023-01-19T04:27:15.968Z,53.64
2023-01-19T04:29:42.716Z,54.18
2023-01-19T04:32:09.358Z,52.23
2023-01-19T04:34:36.026Z,52.09
2023-01-19T04:37:02.712Z,51.72
2023-01-19T04:39:29.354Z,53.03
2023-01-19T04:41:56.093Z,52.87
2023-01-19T04:44:22.928Z,51.56
2023-01-19T04:46:49.845Z,52.04
2023-01-19T04:49:16.593Z,51.33
2023-01-19T04:51:43.442Z,51.97
2023-01-19T04:54:10.088Z,52.32
2023-01-19T04:56:36.737Z,52.98
2023-01-19T04:59:03.325Z,51.23
2023-01-19T05:01:30.106Z,51.57
2023-01-19T05:03:59.062Z,53.84
2023-01-19T05:06:25.796Z,52.64
2023-01-19T05:08:52.438Z,54.17
2023-01-19T05:11:19.198Z,53.26
2023-01-19T05:13:45.821Z,53.84
2023-01-19T05:16:12.565Z,55.12
2023-01-19T05:18:39.506Z,56.39
2023-01-19T05:21:06.763Z,55.57
2023-01-19T05:23:34.770Z,56.33
2023-01-19T05:26:01.826Z,55.53
2023-01-19T05:28:29.588Z,56.23
2023-01-19T05:30:56.542Z,56.03
2023-01-19T05:33:23.309Z,55.71
2023-01-19T05:35:53.367Z,54.61
2023-01-19T05:38:29.318Z,55.67
2023-01-19T05:41:00.728Z,55.50
2023-01-19T05:43:27.415Z,55.83
2023-01-19T05:45:54.075Z,54.88
2023-01-19T05:48:20.697Z,54.45
2023-01-19T05:50:47.343Z,55.25
2023-01-19T05:53:13.968Z,55.96
2023-01-19T05:55:40.612Z,54.61
2023-01-19T05:58:07.219Z,56.75
2023-01-19T06:00:33.894Z,56.34
2023-01-19T06:03:01.041Z,55.89
2023-01-19T06:05:27.861Z,56.49
2023-01-19T06:07:56.773Z,56.07
2023-01-19T06:10:23.413Z,56.56
2023-01-19T06:12:50.030Z,55.66
2023-01-19T06:15:16.948Z,56.13
2023-01-19T06:17:43.600Z,56.03
2023-01-19T06:20:10.806Z,56.05
2023-01-19T06:22:37.526Z,56.98
2023-01-19T06:25:04.251Z,56.00
2023-01-19T06:27:30.852Z,54.95
2023-01-19T06:29:57.512Z,56.49
2023-01-19T06:32:24.153Z,56.34
2023-01-19T06:34:53.233Z,56.52
2023-01-19T06:37:20.574Z,56.61
2023-01-19T06:39:47.164Z,56.47
2023-01-19T06:42:13.800Z,56.92
2023-01-19T06:44:40.407Z,57.42
2023-01-19T06:47:14.930Z,56.74
2023-01-19T06:49:42.803Z,56.63
2023-01-19T06:52:10.322Z,56.92
2023-01-19T06:54:37.242Z,57.87
2023-01-19T06:57:04.480Z,57.90
2023-01-19T06:59:31.932Z,56.86
2023-01-19T07:01:58.772Z,56.14
2023-01-19T07:04:25.512Z,56.89
2023-01-19T07:06:52.152Z,57.02
2023-01-19T07:09:18.861Z,56.82
2023-01-19T07:11:45.507Z,57.66
2023-01-19T07:14:12.236Z,57.46
2023-01-19T07:16:38.890Z,56.44
2023-01-19T07:19:05.511Z,56.47
2023-01-19T07:21:32.110Z,56.23
2023-01-19T07:23:58.717Z,57.05
2023-01-19T07:26:25.427Z,57.71
2023-01-19T07:28:52.342Z,57.18
2023-01-19T07:31:19.249Z,56.20
2023-01-19T07:33:46.008Z,56.72
2023-01-19T07:36:12.732Z,55.86
2023-01-19T07:38:39.451Z,56.73
2023-01-19T07:41:07.178Z,56.90
2023-01-19T07:43:33.882Z,56.86
2023-01-19T07:46:01.285Z,55.86
2023-01-19T07:48:28.077Z,56.58
2023-01-19T07:50:59.616Z,56.95
2023-01-19T07:53:26.209Z,57.19
2023-01-19T07:55:56.258Z,57.20
2023-01-19T07:58:24.142Z,57.18
2023-01-19T08:00:50.858Z,57.14
2023-01-19T08:03:17.546Z,57.46
2023-01-19T08:05:44.687Z,58.10
2023-01-19T08:08:11.324Z,58.12
2023-01-19T08:10:37.940Z,58.04
2023-01-19T08:13:04.577Z,58.16
2023-01-19T08:15:31.294Z,58.49
2023-01-19T08:18:01.635Z,57.65
2023-01-19T08:20:29.020Z,57.88
2023-01-19T08:22:55.700Z,58.75
2023-01-19T08:25:22.316Z,58.23
2023-01-19T08:27:48.982Z,57.64
2023-01-19T08:30:17.335Z,58.03
2023-01-19T08:32:44.009Z,57.31
2023-01-19T08:35:10.755Z,57.67
2023-01-19T08:37:37.407Z,57.40
2023-01-19T08:40:04.504Z,58.13
2023-01-19T08:42:31.107Z,56.95
2023-01-19T08:44:58.525Z,55.77
2023-01-19T08:47:25.415Z,53.84
2023-01-19T08:49:52.069Z,55.30
2023-01-19T08:52:18.843Z,56.32
2023-01-19T08:54:45.495Z,57.08
2023-01-19T08:57:12.203Z,56.97
2023-01-19T08:59:39.023Z,57.97
2023-01-19T09:02:05.715Z,56.49
2023-01-19T09:04:32.396Z,54.23
2023-01-19T09:06:59.052Z,56.25
2023-01-19T09:09:25.660Z,56.21
2023-01-19T09:11:54.148Z,55.94
2023-01-19T09:14:20.742Z,54.97
2023-01-19T09:16:48.433Z,51.57
2023-01-19T09:19:15.121Z,54.39
2023-01-19T09:21:41.739Z,54.74
2023-01-19T09:24:08.757Z,52.66
2023-01-19T09:26:35.357Z,46.89
2023-01-19T09:29:01.993Z,45.65
2023-01-19T09:31:28.667Z,47.35
2023-01-19T09:33:55.344Z,48.28
2023-01-19T09:36:22.001Z,48.68
2023-01-19T09:38:48.627Z,46.51
2023-01-19T09:41:21.474Z,50.36
2023-01-19T09:43:54.884Z,51.49
2023-01-19T09:46:24.314Z,48.33
2023-01-19T09:48:54.138Z,48.67
2023-01-19T09:51:20.666Z,48.79
2023-01-19T09:53:57.612Z,48.30
2023-01-19T09:56:24.288Z,48.37
2023-01-19T09:58:51.131Z,49.36
2023-01-19T10:01:26.815Z,49.05
2023-01-19T10:04:29.879Z,48.54
2023-01-19T10:07:35.223Z,49.27
2023-01-19T10:10:24.585Z,48.66
2023-01-19T10:13:09.891Z,48.13
2023-01-19T10:15:48.737Z,46.82
2023-01-19T10:18:24.895Z,47.89
2023-01-19T10:20:55.331Z,47.97
2023-01-19T10:23:39.487Z,49.77
2023-01-19T10:26:12.099Z,47.53
2023-01-19T10:28:38.862Z,48.01
2023-01-19T10:31:05.803Z,47.05
2023-01-19T10:33:33.529Z,45.66
2023-01-19T10:36:03.054Z,45.34
2023-01-19T10:38:29.706Z,45.37
2023-01-19T10:41:07.538Z,45.08
2023-01-19T10:43:34.120Z,46.08
2023-01-19T10:46:07.713Z,45.31
2023-01-19T10:48:39.557Z,46.29
2023-01-19T10:51:06.234Z,45.75
2023-01-19T10:53:32.865Z,45.75
2023-01-19T10:56:12.591Z,46.16
2023-01-19T10:58:39.288Z,47.06
2023-01-19T11:01:25.633Z,47.07
2023-01-19T11:03:52.862Z,47.44
2023-01-19T11:06:21.922Z,48.06
2023-01-19T11:08:49.962Z,49.45
2023-01-19T11:11:16.867Z,48.27
2023-01-19T11:13:43.472Z,47.82
2023-01-19T11:16:29.172Z,48.75
2023-01-19T11:18:56.465Z,49.04
2023-01-19T11:21:26.682Z,49.12
2023-01-19T11:23:57.800Z,48.77
2023-01-19T11:26:28.443Z,48.00
2023-01-19T11:28:55.796Z,47.81
2023-01-19T11:31:28.250Z,46.67
2023-01-19T11:34:02.417Z,47.75
2023-01-19T11:36:34.564Z,47.45
2023-01-19T11:39:15.847Z,48.61
2023-01-19T11:41:42.502Z,48.29
2023-01-19T11:44:33.945Z,48.09
2023-01-19T11:47:03.066Z,47.53
2023-01-19T11:49:54.939Z,45.95
2023-01-19T11:52:33.643Z,45.51
2023-01-19T11:55:22.689Z,45.66
2023-01-19T11:57:54.387Z,45.78
2023-01-19T12:00:38.872Z,44.79
2023-01-19T12:03:16.622Z,45.37
2023-01-19T12:05:48.398Z,44.70
2023-01-19T12:08:19.100Z,45.43
2023-01-19T12:10:47.068Z,44.45
2023-01-19T12:13:24.305Z,45.55
2023-01-19T12:15:56.394Z,45.00
2023-01-19T12:18:24.460Z,44.62
2023-01-19T12:20:52.657Z,44.66
2023-01-19T12:23:43.280Z,43.32
2023-01-19T12:26:16.095Z,43.04
2023-01-19T12:28:44.559Z,43.74
2023-01-19T12:31:13.300Z,43.54
2023-01-19T12:33:40.491Z,43.37
2023-01-19T12:36:28.869Z,43.91
2023-01-19T12:39:01.854Z,44.67
2023-01-19T12:41:34.747Z,44.81
2023-01-19T12:44:10.492Z,44.97
2023-01-19T12:46:37.489Z,44.62
2023-01-19T12:49:11.228Z,44.78
2023-01-19T12:51:38.017Z,43.98
2023-01-19T12:54:07.396Z,44.24
2023-01-19T12:56:35.947Z,44.87
2023-01-19T12:59:02.814Z,45.12
2023-01-19T13:01:29.530Z,44.74
2023-01-19T13:04:23.831Z,42.87
2023-01-19T13:06:50.299Z,44.24
2023-01-19T13:09:32.318Z,43.90
2023-01-19T13:12:14.358Z,43.97
2023-01-19T13:14:41.916Z,43.48
2023-01-19T13:17:27.362Z,43.32
2023-01-19T13:20:00.714Z,44.85
2023-01-19T13:23:12.467Z,43.25
2023-01-19T13:25:39.151Z,42.65
2023-01-19T13:28:07.973Z,42.64
2023-01-19T13:30:34.829Z,42.13
2023-01-19T13:33:06.298Z,42.10
2023-01-19T13:35:32.914Z,42.19
2023-01-19T13:37:59.588Z,42.88
2023-01-19T13:40:36.282Z,42.22
2023-01-19T13:43:02.962Z,42.32
2023-01-19T13:45:34.022Z,42.65
2023-01-19T13:48:01.628Z,42.58
2023-01-19T13:50:30.557Z,42.36
2023-01-19T13:52:57.370Z,43.44
2023-01-19T13:55:24.515Z,44.01
2023-01-19T13:57:51.451Z,42.61
2023-01-19T14:00:19.305Z,43.31
2023-01-19T14:03:00.405Z,44.06
2023-01-19T14:05:31.081Z,43.74
2023-01-19T14:08:09.861Z,43.41
2023-01-19T14:10:41.042Z,44.20
2023-01-19T14:13:24.808Z,45.96
2023-01-19T14:15:57.456Z,44.38
2023-01-19T14:18:34.720Z,44.82
2023-01-19T14:21:12.368Z,45.28
2023-01-19T14:23:47.128Z,44.52
2023-01-19T14:27:07.212Z,44.98
2023-01-19T14:29:36.781Z,43.31
2023-01-19T14:32:03.306Z,43.09
2023-01-19T14:34:37.107Z,43.13
2023-01-19T14:37:04.560Z,44.94
2023-01-19T14:39:33.430Z,45.70
2023-01-19T14:42:01.138Z,43.86
2023-01-19T14:44:32.353Z,44.13
2023-01-19T14:46:59.076Z,44.30
2023-01-19T14:49:37.158Z,45.83
2023-01-19T14:52:16.137Z,43.37
2023-01-19T14:54:42.863Z,42.54
2023-01-19T14:57:13.098Z,43.50
2023-01-19T14:59:40.142Z,41.67
2023-01-19T15:02:07.093Z,42.76
2023-01-19T15:04:33.806Z,42.32
2023-01-19T15:07:00.515Z,43.21
2023-01-19T15:09:27.190Z,44.79
2023-01-19T15:11:53.935Z,43.52
2023-01-19T15:14:20.605Z,42.64
2023-01-19T15:16:47.294Z,43.10
2023-01-19T15:19:15.130Z,42.33
2023-01-19T15:21:41.724Z,42.45
2023-01-19T15:24:11.587Z,46.75
2023-01-19T15:26:39.683Z,48.12
2023-01-19T15:29:14.475Z,45.71
2023-01-19T15:31:41.134Z,47.91
2023-01-19T15:34:11.431Z,45.08
2023-01-19T15:36:38.129Z,48.93
2023-01-19T15:39:04.775Z,51.26
2023-01-19T15:41:31.545Z,50.15
2023-01-19T15:43:58.423Z,50.39
2023-01-19T15:46:25.206Z,50.33
2023-01-19T15:48:51.856Z,50.71
2023-01-19T15:51:20.144Z,49.93
2023-01-19T15:53:46.973Z,51.26
2023-01-19T15:56:16.532Z,51.82
2023-01-19T15:58:43.332Z,49.08
2023-01-19T16:01:13.950Z,49.91
2023-01-19T16:03:40.635Z,50.33
2023-01-19T16:06:07.635Z,52.53
2023-01-19T16:08:34.933Z,53.30
2023-01-19T16:11:06.131Z,54.31
2023-01-19T16:13:32.732Z,52.05
2023-01-19T16:16:03.897Z,53.56
2023-01-19T16:18:30.636Z,53.48
2023-01-19T16:20:57.367Z,53.19
2023-01-19T16:23:24.390Z,53.85
2023-01-19T16:26:05.433Z,54.40
2023-01-19T16:28:32.258Z,53.90
2023-01-19T16:30:58.929Z,53.98
2023-01-19T16:33:25.604Z,53.86
2023-01-19T16:35:52.360Z,54.64
2023-01-19T16:38:19.082Z,53.15
2023-01-19T16:40:45.976Z,53.39
2023-01-19T16:43:13.260Z,53.44
2023-01-19T16:45:59.793Z,53.38
2023-01-19T16:48:26.710Z,52.69
2023-01-19T16:51:03.661Z,53.17
2023-01-19T16:53:30.683Z,53.13
2023-01-19T16:55:57.430Z,53.33
2023-01-19T16:58:24.020Z,52.24
2023-01-19T17:00:50.723Z,51.40
2023-01-19T17:03:17.403Z,51.36
2023-01-19T17:05:49.193Z,51.38
2023-01-19T17:08:17.366Z,51.88
2023-01-19T17:10:43.997Z,50.93
2023-01-19T17:13:10.616Z,51.18
2023-01-19T17:15:37.366Z,50.40
2023-01-19T17:18:04.155Z,50.29
2023-01-19T17:20:33.348Z,51.16
2023-01-19T17:23:00.155Z,51.13
2023-01-19T17:25:26.897Z,52.05
2023-01-19T17:27:53.578Z,51.68
2023-01-19T17:30:20.418Z,51.42
2023-01-19T17:32:47.177Z,51.80
2023-01-19T17:35:13.836Z,52.13
2023-01-19T17:37:40.453Z,52.69
2023-01-19T17:40:07.767Z,52.89
2023-01-19T17:42:41.006Z,53.18
2023-01-19T17:45:08.822Z,52.66
2023-01-19T17:47:35.434Z,52.88
2023-01-19T17:50:02.116Z,53.37
2023-01-19T17:52:28.779Z,53.07
2023-01-19T17:54:55.458Z,52.70
2023-01-19T17:57:22.179Z,52.35
2023-01-19T17:59:48.811Z,52.73
2023-01-19T18:02:15.758Z,52.52
2023-01-19T18:04:42.564Z,52.49
2023-01-19T18:07:09.186Z,52.36
2023-01-19T18:09:35.838Z,52.56
2023-01-19T18:12:02.689Z,52.53
2023-01-19T18:14:29.433Z,52.11
2023-01-19T18:16:56.097Z,51.95
2023-01-19T18:19:22.895Z,52.26
2023-01-19T18:21:49.654Z,52.47
2023-01-19T18:24:16.271Z,52.23
2023-01-19T18:26:42.902Z,53.47
2023-01-19T18:29:09.618Z,53.23
2023-01-19T18:31:36.313Z,52.61
2023-01-19T18:34:03.113Z,53.51
2023-01-19T18:36:29.776Z,53.99
2023-01-19T18:38:56.392Z,52.85
2023-01-19T18:41:23.059Z,52.24
2023-01-19T18:43:49.805Z,52.12
2023-01-19T18:46:16.627Z,52.75
2023-01-19T18:48:43.423Z,52.11
2023-01-19T18:51:11.971Z,51.91
2023-01-19T18:53:38.964Z,52.77
2023-01-19T18:56:06.093Z,51.18
2023-01-19T18:58:33.194Z,49.34
2023-01-19T19:01:00.489Z,48.09
2023-01-19T19:03:30.397Z,47.46
2023-01-19T19:05:57.163Z,49.20
2023-01-19T19:08:23.880Z,49.36
2023-01-19T19:10:53.250Z,51.24
2023-01-19T19:13:20.121Z,50.57
2023-01-19T19:15:46.935Z,48.71
2023-01-19T19:18:14.240Z,49.08
2023-01-19T19:20:41.044Z,48.74
2023-01-19T19:23:07.683Z,48.67
2023-01-19T19:25:34.491Z,47.93
2023-01-19T19:28:01.213Z,48.41
2023-01-19T19:30:29.032Z,48.41
2023-01-19T19:32:55.937Z,49.89
2023-01-19T19:35:25.678Z,50.12
2023-01-19T19:37:52.456Z,48.16
2023-01-19T19:40:21.269Z,49.51
2023-01-19T19:42:47.973Z,49.45
2023-01-19T19:45:14.693Z,50.00
2023-01-19T19:47:41.378Z,49.60
2023-01-19T19:50:09.148Z,49.45
2023-01-19T19:52:42.082Z,48.63
2023-01-19T19:55:09.353Z,47.39
2023-01-19T19:57:36.074Z,46.36
2023-01-19T20:00:03.279Z,46.63
2023-01-19T20:02:30.133Z,47.67
2023-01-19T20:04:56.818Z,49.10
2023-01-19T20:07:23.578Z,49.96
2023-01-19T20:09:50.266Z,49.03
2023-01-19T20:12:16.980Z,50.41
2023-01-19T20:14:43.699Z,49.34
2023-01-19T20:17:10.444Z,48.48
2023-01-19T20:19:37.142Z,48.43
2023-01-19T20:22:03.910Z,49.41
2023-01-19T20:24:30.600Z,51.85
2023-01-19T20:26:57.413Z,49.43
2023-01-19T20:29:24.325Z,47.41
2023-01-19T20:31:52.637Z,49.93
2023-01-19T20:34:20.823Z,48.63
2023-01-19T20:36:47.558Z,47.57
2023-01-19T20:39:14.280Z,46.39
2023-01-19T20:41:40.994Z,48.59
2023-01-19T20:44:07.654Z,49.38
2023-01-19T20:46:34.279Z,49.35
2023-01-19T20:49:01.011Z,47.48
2023-01-19T20:51:27.829Z,48.79
2023-01-19T20:53:54.508Z,47.57
2023-01-19T20:56:21.253Z,47.27
2023-01-19T20:58:47.944Z,49.05
2023-01-19T21:01:19.860Z,49.87
2023-01-19T21:03:46.841Z,47.50
2023-01-19T21:06:13.841Z,46.27
2023-01-19T21:08:40.720Z,47.55
2023-01-19T21:11:07.381Z,47.23
2023-01-19T21:13:34.289Z,49.83
2023-01-19T21:16:01.119Z,45.68
2023-01-19T21:18:27.864Z,47.29
2023-01-19T21:20:57.499Z,44.36
2023-01-19T21:23:25.123Z,45.67
2023-01-19T21:25:59.621Z,44.74
2023-01-19T21:28:26.794Z,45.58
2023-01-19T21:30:53.644Z,45.52
2023-01-19T21:33:20.618Z,44.82
2023-01-19T21:35:51.276Z,45.43
2023-01-19T21:38:18.107Z,44.70
2023-01-19T21:40:44.853Z,43.86
2023-01-19T21:43:11.537Z,46.45
2023-01-19T21:45:38.236Z,46.99
2023-01-19T21:48:05.001Z,46.84
2023-01-19T21:50:31.688Z,43.69
2023-01-19T21:52:58.326Z,44.50
2023-01-19T21:55:24.956Z,43.35
2023-01-19T21:57:52.348Z,43.10
2023-01-19T22:00:19.200Z,44.55
2023-01-19T22:02:55.237Z,44.96
2023-01-19T22:05:29.588Z,45.87
2023-01-19T22:07:56.208Z,48.25
2023-01-19T22:10:22.836Z,47.39
2023-01-19T22:12:49.454Z,47.26
2023-01-19T22:15:16.180Z,46.57
2023-01-19T22:17:42.799Z,45.49
2023-01-19T22:20:09.931Z,48.57
2023-01-19T22:22:36.555Z,48.47
2023-01-19T22:25:05.858Z,47.46
2023-01-19T22:27:32.610Z,48.68
2023-01-19T22:29:59.711Z,49.83
2023-01-19T22:32:26.298Z,49.32
2023-01-19T22:34:52.900Z,47.55
2023-01-19T22:37:19.772Z,47.74
2023-01-19T22:39:46.455Z,45.68
2023-01-19T22:42:13.103Z,45.87
2023-01-19T22:44:39.743Z,45.83
2023-01-19T22:47:06.457Z,47.68
2023-01-19T22:49:33.059Z,47.80
2023-01-19T22:51:59.661Z,48.18
2023-01-19T22:54:26.335Z,48.00
2023-01-19T22:56:52.937Z,47.50
2023-01-19T22:59:19.536Z,46.50
2023-01-19T23:01:46.244Z,43.89
2023-01-19T23:04:14.964Z,43.55
2023-01-19T23:06:41.677Z,43.38
2023-01-19T23:09:11.274Z,45.36
2023-01-19T23:11:40.006Z,44.87
2023-01-19T23:14:06.981Z,45.76
2023-01-19T23:16:35.376Z,47.77
2023-01-19T23:19:02.059Z,46.50
2023-01-19T23:21:29.462Z,46.90
2023-01-19T23:23:57.060Z,48.41
2023-01-19T23:26:23.728Z,49.26
2023-01-19T23:29:00.560Z,45.25
2023-01-19T23:31:28.626Z,47.88
2023-01-19T23:33:56.869Z,48.22
2023-01-19T23:36:24.587Z,49.88
2023-01-19T23:38:58.850Z,47.35
2023-01-19T23:41:25.717Z,44.48
2023-01-19T23:43:52.353Z,44.63
2023-01-19T23:46:19.142Z,44.82
2023-01-19T23:48:45.827Z,47.30
2023-01-19T23:51:17.155Z,46.34
2023-01-19T23:53:43.764Z,46.50
2023-01-19T23:56:10.963Z,46.52
2023-01-19T23:58:37.618Z,45.76
